createdAt,value
2022-10-20T00:01:56.695Z,33.05
2022-10-20T00:04:30.121Z,33.47
2022-10-20T00:07:02.038Z,33.10
2022-10-20T00:09:34.582Z,31.27
2022-10-20T00:12:06.557Z,33.23
2022-10-20T00:14:39.303Z,31.75
2022-10-20T00:17:11.606Z,32.80
2022-10-20T00:19:48.191Z,33.88
2022-10-20T00:22:20.128Z,31.42
2022-10-20T00:24:52.876Z,30.37
2022-10-20T00:27:24.831Z,30.42
2022-10-20T00:29:57.355Z,31.95
2022-10-20T00:32:30.196Z,30.95
2022-10-20T00:35:02.762Z,34.45
2022-10-20T00:37:34.727Z,34.10
2022-10-20T00:40:08.265Z,38.40
2022-10-20T00:42:45.741Z,37.40
2022-10-20T00:45:21.723Z,28.90
2022-10-20T00:48:00.912Z,32.60
2022-10-20T00:50:42.523Z,30.73
2022-10-20T00:53:16.643Z,28.73
2022-10-20T00:55:52.602Z,32.47
2022-10-20T00:58:25.823Z,30.15
2022-10-20T01:01:00.168Z,31.88
2022-10-20T01:03:45.479Z,32.87
2022-10-20T01:06:22.509Z,28.15
2022-10-20T01:08:55.224Z,24.45
2022-10-20T01:11:52.840Z,23.80
2022-10-20T01:15:08.493Z,20.75
2022-10-20T01:17:52.851Z,26.03
2022-10-20T01:20:51.627Z,22.67
2022-10-20T01:23:53.727Z,21.92
2022-10-20T01:27:10.242Z,19.83
2022-10-20T01:29:55.400Z,18.52
2022-10-20T01:32:39.695Z,19.80
2022-10-20T01:38:43.292Z,16.67
2022-10-20T01:41:27.390Z,14.00
2022-10-20T01:44:02.116Z,17.20
2022-10-20T01:46:35.100Z,17.50
2022-10-20T01:49:09.805Z,17.08
2022-10-20T01:54:22.939Z,16.50
2022-10-20T01:57:13.996Z,16.67
2022-10-20T01:59:56.150Z,15.80
2022-10-20T02:03:24.998Z,17.45
2022-10-20T02:06:06.345Z,16.50
2022-10-20T02:08:58.791Z,14.63
2022-10-20T02:11:58.997Z,19.35
2022-10-20T02:14:33.126Z,18.57
2022-10-20T02:17:14.597Z,15.73
2022-10-20T02:19:51.910Z,16.27
2022-10-20T02:22:25.840Z,17.90
2022-10-20T02:24:59.153Z,18.02
2022-10-20T02:27:36.621Z,20.13
2022-10-20T02:30:12.411Z,17.83
2022-10-20T02:32:50.005Z,17.55
2022-10-20T02:35:31.794Z,20.95
2022-10-20T02:38:04.594Z,19.38
2022-10-20T02:40:36.899Z,17.13
2022-10-20T02:43:09.178Z,15.82
2022-10-20T02:45:41.113Z,16.58
2022-10-20T02:48:13.844Z,15.27
2022-10-20T02:50:46.171Z,18.10
2022-10-20T02:53:18.924Z,18.60
2022-10-20T02:55:51.271Z,15.27
2022-10-20T02:58:23.132Z,13.90
2022-10-20T03:00:55.891Z,18.58
2022-10-20T03:03:28.332Z,17.85
2022-10-20T03:06:09.196Z,13.23
2022-10-20T03:08:42.836Z,14.02
2022-10-20T03:11:15.097Z,18.33
2022-10-20T03:13:47.863Z,11.50
2022-10-20T03:16:19.756Z,15.82
2022-10-20T03:18:52.567Z,13.90
2022-10-20T03:21:24.452Z,12.32
2022-10-20T03:23:57.259Z,16.00
2022-10-20T03:26:29.134Z,15.43
2022-10-20T03:29:01.820Z,13.52
2022-10-20T03:31:34.031Z,14.77
2022-10-20T03:34:06.734Z,19.67
2022-10-20T03:36:38.747Z,13.18
2022-10-20T03:39:11.946Z,15.73
2022-10-20T03:41:43.850Z,17.30
2022-10-20T03:44:16.566Z,13.87
2022-10-20T03:46:49.237Z,15.20
2022-10-20T03:49:21.526Z,16.60
2022-10-20T03:51:53.476Z,18.83
2022-10-20T03:54:26.219Z,14.60
2022-10-20T03:56:58.646Z,15.73
2022-10-20T03:59:30.674Z,14.43
2022-10-20T04:02:04.026Z,16.27
2022-10-20T04:04:36.014Z,14.68
2022-10-20T04:07:08.724Z,20.20
2022-10-20T04:09:41.047Z,13.87
2022-10-20T04:12:13.350Z,14.48
2022-10-20T04:14:45.741Z,12.23
2022-10-20T04:17:17.676Z,14.07
2022-10-20T04:19:50.532Z,13.48
2022-10-20T04:22:22.451Z,15.27
2022-10-20T04:24:55.151Z,14.25
2022-10-20T04:27:28.952Z,14.98
2022-10-20T04:30:02.271Z,15.85
2022-10-20T04:32:34.190Z,15.85
2022-10-20T04:35:07.708Z,15.57
2022-10-20T04:37:39.869Z,15.70
2022-10-20T04:40:12.382Z,14.32
2022-10-20T04:42:45.134Z,14.40
2022-10-20T04:45:17.489Z,14.23
2022-10-20T04:47:50.318Z,15.87
2022-10-20T04:50:22.660Z,14.13
2022-10-20T04:53:08.361Z,14.43
2022-10-20T04:55:40.608Z,15.27
2022-10-20T04:58:13.714Z,13.43
2022-10-20T05:00:46.385Z,14.33
2022-10-20T05:03:19.614Z,14.90
2022-10-20T05:05:51.962Z,18.45
2022-10-20T05:08:24.374Z,13.48
2022-10-20T05:10:56.320Z,15.10
2022-10-20T05:13:28.641Z,17.93
2022-10-20T05:16:00.489Z,14.75
2022-10-20T05:18:34.204Z,13.52
2022-10-20T05:21:10.290Z,12.55
2022-10-20T05:23:44.760Z,20.92
2022-10-20T05:26:18.930Z,16.57
2022-10-20T05:28:52.696Z,13.50
2022-10-20T05:31:25.067Z,14.70
2022-10-20T05:33:57.802Z,12.27
2022-10-20T05:39:21.678Z,12.07
2022-10-20T05:41:54.066Z,14.23
2022-10-20T05:44:26.820Z,15.70
2022-10-20T05:46:58.890Z,15.02
2022-10-20T05:49:32.089Z,12.98
2022-10-20T05:52:04.436Z,16.67
2022-10-20T05:54:37.188Z,16.13
2022-10-20T05:57:09.078Z,13.90
2022-10-20T05:59:41.851Z,11.80
2022-10-20T06:02:14.384Z,12.25
2022-10-20T06:04:47.539Z,12.40
2022-10-20T06:07:20.062Z,15.20
2022-10-20T06:09:52.833Z,12.95
2022-10-20T06:12:25.080Z,18.45
2022-10-20T06:14:57.023Z,16.38
2022-10-20T06:17:29.629Z,13.67
2022-10-20T06:20:01.901Z,17.80
2022-10-20T06:22:34.875Z,25.45
2022-10-20T06:25:07.963Z,18.73
2022-10-20T06:27:42.640Z,17.38
2022-10-20T06:30:14.595Z,17.03
2022-10-20T06:32:47.182Z,14.38
2022-10-20T06:35:19.098Z,13.18
2022-10-20T06:37:52.049Z,12.82
2022-10-20T06:40:24.001Z,14.13
2022-10-20T06:45:29.688Z,13.85
2022-10-20T06:48:02.741Z,12.13
2022-10-20T06:50:35.611Z,11.60
2022-10-20T06:53:08.032Z,14.93
2022-10-20T06:55:40.356Z,13.07
2022-10-20T06:58:13.044Z,9.75
2022-10-20T07:00:45.029Z,15.63
2022-10-20T07:03:17.672Z,15.18
2022-10-20T07:05:49.712Z,13.65
2022-10-20T07:08:23.936Z,16.07
2022-10-20T07:11:08.447Z,10.32
2022-10-20T07:13:41.109Z,14.30
2022-10-20T07:16:17.161Z,12.75
2022-10-20T07:18:50.652Z,14.68
2022-10-20T07:21:30.747Z,13.43
2022-10-20T07:24:07.946Z,10.38
2022-10-20T07:26:41.736Z,20.23
2022-10-20T07:29:14.723Z,16.63
2022-10-20T07:31:48.567Z,17.15
2022-10-20T07:34:26.319Z,19.93
2022-10-20T07:37:00.045Z,20.23
2022-10-20T07:39:31.919Z,28.60
2022-10-20T07:42:04.521Z,21.05
2022-10-20T07:44:36.834Z,24.30
2022-10-20T07:47:09.417Z,24.20
2022-10-20T07:49:44.252Z,23.27
2022-10-20T07:52:18.702Z,24.25
2022-10-20T07:54:52.843Z,23.25
2022-10-20T07:57:28.660Z,18.70
2022-10-20T08:00:00.925Z,17.20
2022-10-20T08:02:33.438Z,26.20
2022-10-20T08:05:05.819Z,20.60
2022-10-20T08:07:38.828Z,19.80
2022-10-20T08:10:10.955Z,17.08
2022-10-20T08:12:43.945Z,21.10
2022-10-20T08:15:18.946Z,18.77
2022-10-20T08:17:51.229Z,18.67
2022-10-20T08:20:27.239Z,18.65
2022-10-20T08:23:00.189Z,18.90
2022-10-20T08:25:33.121Z,19.23
2022-10-20T08:28:06.266Z,21.27
2022-10-20T08:30:38.234Z,15.20
2022-10-20T08:33:11.789Z,12.70
2022-10-20T08:35:43.823Z,16.10
2022-10-20T08:38:16.870Z,13.80
2022-10-20T08:40:48.767Z,17.38
2022-10-20T08:43:21.658Z,15.50
2022-10-20T08:45:53.719Z,17.55
2022-10-20T08:48:30.519Z,16.27
2022-10-20T08:51:02.418Z,17.70
2022-10-20T08:53:39.515Z,18.42
2022-10-20T08:56:15.665Z,14.55
2022-10-20T08:58:48.243Z,13.55
2022-10-20T09:01:23.174Z,13.68
2022-10-20T09:04:12.080Z,14.43
2022-10-20T09:06:47.589Z,15.38
2022-10-20T09:09:22.535Z,17.27
2022-10-20T09:12:03.643Z,18.45
2022-10-20T09:14:37.744Z,16.02
2022-10-20T09:17:17.891Z,17.37
2022-10-20T09:19:57.662Z,13.82
2022-10-20T09:22:35.827Z,16.08
2022-10-20T09:25:16.935Z,14.32
2022-10-20T09:27:50.184Z,12.35
2022-10-20T09:30:22.296Z,10.50
2022-10-20T09:32:54.954Z,16.58
2022-10-20T09:35:34.189Z,14.45
2022-10-20T09:38:30.434Z,17.17
2022-10-20T09:41:15.357Z,13.38
2022-10-20T09:43:58.212Z,11.83
2022-10-20T09:46:42.085Z,11.13
2022-10-20T09:49:40.428Z,12.07
2022-10-20T09:52:24.450Z,11.45
2022-10-20T09:55:08.636Z,13.10
2022-10-20T09:57:41.139Z,14.00
2022-10-20T10:00:37.322Z,16.42
2022-10-20T10:03:23.145Z,13.95
2022-10-20T10:06:00.054Z,12.32
2022-10-20T10:08:46.387Z,11.70
2022-10-20T10:11:22.019Z,11.10
2022-10-20T10:13:55.099Z,11.18
2022-10-20T10:16:27.874Z,11.55
2022-10-20T10:19:05.137Z,12.43
2022-10-20T10:21:54.018Z,14.48
2022-10-20T10:24:40.106Z,9.97
2022-10-20T10:27:29.158Z,11.13
2022-10-20T10:30:32.802Z,11.95
2022-10-20T10:33:27.762Z,11.50
2022-10-20T10:36:03.685Z,22.63
2022-10-20T10:38:37.419Z,12.10
2022-10-20T10:42:21.488Z,10.75
2022-10-20T10:45:46.825Z,16.38
2022-10-20T10:48:46.080Z,12.15
2022-10-20T10:51:55.929Z,15.35
2022-10-20T10:55:00.301Z,11.53
2022-10-20T10:57:49.146Z,14.02
2022-10-20T11:00:31.226Z,11.10
2022-10-20T11:03:53.079Z,12.38
2022-10-20T11:06:24.942Z,11.95
2022-10-20T11:09:38.824Z,10.10
2022-10-20T11:12:50.347Z,16.77
2022-10-20T11:15:41.851Z,21.27
2022-10-20T11:18:32.554Z,16.95
2022-10-20T11:21:22.670Z,19.25
2022-10-20T11:24:16.011Z,18.07
2022-10-20T11:26:54.372Z,17.95
2022-10-20T11:29:50.204Z,18.67
2022-10-20T11:32:52.320Z,17.83
2022-10-20T11:36:03.731Z,18.25
2022-10-20T11:38:45.207Z,14.63
2022-10-20T11:41:51.986Z,21.40
2022-10-20T11:44:44.801Z,12.68
2022-10-20T11:47:41.666Z,12.40
2022-10-20T11:50:19.393Z,10.20
2022-10-20T11:53:16.002Z,11.03
2022-10-20T11:56:34.056Z,13.00
2022-10-20T11:59:42.435Z,13.27
2022-10-20T12:02:45.640Z,21.80
2022-10-20T12:05:54.346Z,19.60
2022-10-20T12:08:51.095Z,13.57
2022-10-20T12:11:54.726Z,16.52
2022-10-20T12:14:39.677Z,15.95
2022-10-20T12:17:16.639Z,15.68
2022-10-20T12:19:52.302Z,13.73
2022-10-20T12:22:38.902Z,20.57
2022-10-20T12:25:15.272Z,16.80
2022-10-20T12:27:48.467Z,18.05
2022-10-20T12:30:38.713Z,22.90
2022-10-20T12:33:20.781Z,15.20
2022-10-20T12:36:13.782Z,17.97
2022-10-20T12:38:54.623Z,17.02
2022-10-20T12:41:30.204Z,24.75
2022-10-20T12:44:07.199Z,17.50
2022-10-20T12:46:44.466Z,20.20
2022-10-20T12:49:33.356Z,35.00
2022-10-20T12:52:08.537Z,21.60
2022-10-20T12:54:46.300Z,18.45
2022-10-20T12:57:37.393Z,16.73
2022-10-20T13:00:22.348Z,24.52
2022-10-20T13:03:00.574Z,17.77
2022-10-20T13:05:47.880Z,17.73
2022-10-20T13:08:20.573Z,18.65
2022-10-20T13:10:54.121Z,20.38
2022-10-20T13:13:27.285Z,19.10
2022-10-20T13:16:00.166Z,20.53
2022-10-20T13:18:38.518Z,17.05
2022-10-20T13:21:29.124Z,22.13
2022-10-20T13:24:14.013Z,20.25
2022-10-20T13:26:49.173Z,17.80
2022-10-20T13:29:38.000Z,21.17
2022-10-20T13:33:17.874Z,16.67
2022-10-20T13:36:16.283Z,26.70
2022-10-20T13:39:02.703Z,18.77
2022-10-20T13:42:03.293Z,18.25
2022-10-20T13:45:00.666Z,20.43
2022-10-20T13:48:00.405Z,17.55
2022-10-20T13:51:15.898Z,28.25
2022-10-20T13:53:56.790Z,16.45
2022-10-20T13:56:47.189Z,21.05
2022-10-20T13:59:30.722Z,15.63
2022-10-20T14:03:05.304Z,14.25
2022-10-20T14:05:39.478Z,18.50
2022-10-20T14:08:17.822Z,18.55
2022-10-20T14:10:57.628Z,16.60
2022-10-20T14:13:35.041Z,18.67
2022-10-20T14:16:17.459Z,20.05
2022-10-20T14:19:11.670Z,17.20
2022-10-20T14:21:51.371Z,20.90
2022-10-20T14:24:32.290Z,21.50
2022-10-20T14:27:06.033Z,20.83
2022-10-20T14:29:39.914Z,17.50
2022-10-20T14:32:30.497Z,17.67
2022-10-20T14:35:29.882Z,18.10
2022-10-20T14:38:06.336Z,13.60
2022-10-20T14:40:39.568Z,20.93
2022-10-20T14:43:36.365Z,19.70
2022-10-20T14:46:12.970Z,15.38
2022-10-20T14:48:49.725Z,17.50
2022-10-20T14:51:44.062Z,19.40
2022-10-20T14:54:25.245Z,22.37
2022-10-20T14:57:19.640Z,18.77
2022-10-20T15:00:03.988Z,18.25
2022-10-20T15:02:42.820Z,22.15
2022-10-20T15:05:37.284Z,18.27
2022-10-20T15:08:24.505Z,21.20
2022-10-20T15:10:58.028Z,19.73
2022-10-20T15:13:32.814Z,18.50
2022-10-20T15:16:57.844Z,18.45
2022-10-20T15:19:34.827Z,20.70
2022-10-20T15:24:50.374Z,23.60
2022-10-20T15:27:22.285Z,24.88
2022-10-20T15:29:55.020Z,21.75
2022-10-20T15:32:26.962Z,22.77
2022-10-20T15:34:59.784Z,22.23
2022-10-20T15:37:31.751Z,22.13
2022-10-20T15:40:05.455Z,20.20
2022-10-20T15:42:38.183Z,25.17
2022-10-20T15:45:23.972Z,24.98
2022-10-20T15:47:56.826Z,23.13
2022-10-20T15:50:30.246Z,21.45
2022-10-20T15:53:02.540Z,21.15
2022-10-20T15:55:38.775Z,21.20
2022-10-20T15:58:11.563Z,19.95
2022-10-20T16:00:43.641Z,16.37
2022-10-20T16:03:18.963Z,23.25
2022-10-20T16:05:51.287Z,24.80
2022-10-20T16:08:24.001Z,24.67
2022-10-20T16:10:56.588Z,26.27
2022-10-20T16:13:28.520Z,19.33
2022-10-20T16:16:02.150Z,21.52
2022-10-20T16:18:34.628Z,20.48
2022-10-20T16:21:08.169Z,22.05
2022-10-20T16:23:42.509Z,20.70
2022-10-20T16:26:17.122Z,19.37
2022-10-20T16:28:49.283Z,25.33
2022-10-20T16:31:21.973Z,19.10
2022-10-20T16:33:54.363Z,18.35
2022-10-20T16:36:26.690Z,20.17
2022-10-20T16:39:01.207Z,16.33
2022-10-20T16:41:33.049Z,20.88
2022-10-20T16:44:07.107Z,19.05
2022-10-20T16:46:39.582Z,23.20
2022-10-20T16:49:12.749Z,22.02
2022-10-20T16:51:45.137Z,20.37
2022-10-20T16:54:18.765Z,18.63
2022-10-20T16:56:51.154Z,17.42
2022-10-20T16:59:23.912Z,26.13
2022-10-20T17:01:56.294Z,25.25
2022-10-20T17:04:28.323Z,23.93
2022-10-20T17:07:01.002Z,20.85
2022-10-20T17:09:33.487Z,25.20
2022-10-20T17:12:05.690Z,25.27
2022-10-20T17:14:40.962Z,38.90
2022-10-20T17:17:12.873Z,22.87
2022-10-20T17:19:45.598Z,22.20
2022-10-20T17:22:17.510Z,26.13
2022-10-20T17:24:50.394Z,26.10
2022-10-20T17:27:22.310Z,24.15
2022-10-20T17:29:55.018Z,28.07
2022-10-20T17:32:27.271Z,27.45
2022-10-20T17:35:00.076Z,31.60
2022-10-20T17:37:31.964Z,22.08
2022-10-20T17:40:04.690Z,21.52
2022-10-20T17:42:37.260Z,27.63
2022-10-20T17:45:10.668Z,23.48
2022-10-20T17:47:43.139Z,24.48
2022-10-20T17:50:16.077Z,24.90
2022-10-20T17:52:48.867Z,24.40
2022-10-20T17:55:21.821Z,23.63
2022-10-20T17:57:53.752Z,21.90
2022-10-20T18:00:51.228Z,25.00
2022-10-20T18:03:19.563Z,21.50
2022-10-20T18:05:51.422Z,23.83
2022-10-20T18:08:24.433Z,22.07
2022-10-20T18:10:56.745Z,30.95
2022-10-20T18:13:28.622Z,29.30
2022-10-20T18:16:09.373Z,23.17
2022-10-20T18:18:41.475Z,20.70
2022-10-20T18:21:16.628Z,22.27
2022-10-20T18:23:48.916Z,24.45
2022-10-20T18:26:21.753Z,19.70
2022-10-20T18:28:53.836Z,21.25
2022-10-20T18:31:30.950Z,21.05
2022-10-20T18:34:07.241Z,19.50
2022-10-20T18:36:43.526Z,20.70
2022-10-20T18:39:18.701Z,21.20
2022-10-20T18:41:52.998Z,23.33
2022-10-20T18:44:25.139Z,20.30
2022-10-20T18:46:58.746Z,17.43
2022-10-20T18:49:30.618Z,20.60
2022-10-20T18:52:04.118Z,16.77
2022-10-20T18:54:36.485Z,14.00
2022-10-20T18:57:08.789Z,20.40
2022-10-20T18:59:41.545Z,21.23
2022-10-20T19:02:13.424Z,24.25
2022-10-20T19:04:46.213Z,21.17
2022-10-20T19:07:18.179Z,14.55
2022-10-20T19:09:54.809Z,21.42
2022-10-20T19:12:28.373Z,18.93
2022-10-20T19:15:00.678Z,23.55
2022-10-20T19:17:33.057Z,27.58
2022-10-20T19:20:06.321Z,27.45
2022-10-20T19:22:39.812Z,25.02
2022-10-20T19:25:12.475Z,23.60
2022-10-20T19:27:44.796Z,21.02
2022-10-20T19:30:17.831Z,28.02
2022-10-20T19:32:52.206Z,21.00
2022-10-20T19:35:24.924Z,23.90
2022-10-20T19:37:56.837Z,26.13
2022-10-20T19:40:30.735Z,31.38
2022-10-20T19:43:03.051Z,26.73
2022-10-20T19:45:36.171Z,25.45
2022-10-20T19:48:08.975Z,20.23
2022-10-20T19:50:41.683Z,22.47
2022-10-20T19:53:13.557Z,24.23
2022-10-20T19:55:50.410Z,19.77
2022-10-20T19:58:23.069Z,18.40
2022-10-20T20:00:59.727Z,29.17
2022-10-20T20:03:32.444Z,23.47
2022-10-20T20:06:18.422Z,22.80
2022-10-20T20:08:58.761Z,23.98
2022-10-20T20:11:32.281Z,19.48
2022-10-20T20:14:19.462Z,18.40
2022-10-20T20:16:51.331Z,18.20
2022-10-20T20:19:24.094Z,20.73
2022-10-20T20:21:56.339Z,18.80
2022-10-20T20:24:28.653Z,18.70
2022-10-20T20:27:00.961Z,23.05
2022-10-20T20:29:32.823Z,24.23
2022-10-20T20:32:05.417Z,22.98
2022-10-20T20:34:37.689Z,20.13
2022-10-20T20:37:10.366Z,17.77
2022-10-20T20:39:42.321Z,17.63
2022-10-20T20:42:15.410Z,30.43
2022-10-20T20:44:47.830Z,19.40
2022-10-20T20:47:19.779Z,22.00
2022-10-20T20:49:52.533Z,19.23
2022-10-20T20:52:26.435Z,19.60
2022-10-20T20:54:58.339Z,18.20
2022-10-20T20:57:31.069Z,22.77
2022-10-20T21:00:04.250Z,20.48
2022-10-20T21:02:36.103Z,19.05
2022-10-20T21:05:08.806Z,17.40
2022-10-20T21:07:41.051Z,21.93
2022-10-20T21:10:13.830Z,21.13
2022-10-20T21:12:46.169Z,15.15
2022-10-20T21:15:18.509Z,19.38
2022-10-20T21:17:50.740Z,18.40
2022-10-20T21:20:23.820Z,18.83
2022-10-20T21:22:55.724Z,17.67
2022-10-20T21:25:28.442Z,24.33
2022-10-20T21:28:00.782Z,19.67
2022-10-20T21:30:33.606Z,16.83
2022-10-20T21:33:07.277Z,17.70
2022-10-20T21:35:39.188Z,19.45
2022-10-20T21:38:11.877Z,17.85
2022-10-20T21:40:43.739Z,18.15
2022-10-20T21:43:16.444Z,23.98
2022-10-20T21:45:49.187Z,22.87
2022-10-20T21:48:21.563Z,21.30
2022-10-20T21:50:53.417Z,22.60
2022-10-20T21:53:26.674Z,30.27
2022-10-20T21:55:58.943Z,24.23
2022-10-20T21:58:31.845Z,28.80
2022-10-20T22:01:22.692Z,30.02
2022-10-20T22:03:56.076Z,27.83
2022-10-20T22:06:28.290Z,26.00
2022-10-20T22:09:00.894Z,29.38
2022-10-20T22:11:37.609Z,26.53
2022-10-20T22:14:10.270Z,32.53
2022-10-20T22:16:42.972Z,21.77
2022-10-20T22:19:22.073Z,17.85
2022-10-20T22:21:54.462Z,17.00
2022-10-20T22:24:28.198Z,19.47
2022-10-20T22:27:00.096Z,21.65
2022-10-20T22:29:32.411Z,22.65
2022-10-20T22:32:04.953Z,18.55
2022-10-20T22:34:37.269Z,20.20
2022-10-20T22:37:09.549Z,18.10
2022-10-20T22:39:41.478Z,17.60
2022-10-20T22:42:14.153Z,17.35
2022-10-20T22:44:47.769Z,21.85
2022-10-20T22:47:20.476Z,22.95
2022-10-20T22:49:52.754Z,23.70
2022-10-20T22:52:24.620Z,23.20
2022-10-20T22:54:57.541Z,20.00
2022-10-20T22:57:29.881Z,29.33
2022-10-20T23:00:03.121Z,23.83
2022-10-20T23:02:35.287Z,35.40
2022-10-20T23:05:08.882Z,30.08
2022-10-20T23:07:41.061Z,20.90
2022-10-20T23:10:14.443Z,25.52
2022-10-20T23:12:46.776Z,21.52
2022-10-20T23:15:19.509Z,27.60
2022-10-20T23:17:51.401Z,21.30
2022-10-20T23:20:24.115Z,17.48
2022-10-20T23:22:56.002Z,22.65
2022-10-20T23:25:29.138Z,17.75
2022-10-20T23:28:00.995Z,16.70
2022-10-20T23:30:35.045Z,19.92
2022-10-20T23:33:07.566Z,24.15
2022-10-20T23:35:39.773Z,21.50
2022-10-20T23:41:04.222Z,26.43
2022-10-20T23:46:10.049Z,24.52
2022-10-20T23:48:42.788Z,21.15
2022-10-20T23:51:14.927Z,20.35
2022-10-20T23:53:47.631Z,23.43
2022-10-20T23:56:19.537Z,29.25
2022-10-20T23:58:52.225Z,24.48
